createdAt,value
2019-01-31T00:00:05.784Z,2.50
2019-01-31T00:02:49.322Z,2.40
2019-01-31T00:05:27.181Z,2.30
2019-01-31T00:08:19.529Z,2.30
2019-01-31T00:11:30.599Z,2.20
2019-01-31T00:14:43.887Z,2.20
2019-01-31T00:18:00.104Z,2.40
2019-01-31T00:21:01.857Z,2.40
2019-01-31T00:24:17.632Z,2.40
2019-01-31T00:27:10.755Z,2.40
2019-01-31T00:29:52.470Z,2.20
2019-01-31T00:33:14.485Z,2.30
2019-01-31T00:36:03.573Z,2.20
2019-01-31T00:39:15.505Z,2.30
2019-01-31T00:42:24.784Z,2.40
2019-01-31T00:45:47.950Z,2.30
2019-01-31T00:48:48.744Z,2.00
2019-01-31T00:51:30.528Z,2.00
2019-01-31T00:54:45.289Z,1.90
2019-01-31T00:57:46.411Z,1.90
2019-01-31T01:00:45.305Z,1.90
2019-01-31T01:03:53.831Z,2.10
2019-01-31T01:07:16.817Z,2.20
2019-01-31T01:10:11.011Z,2.30
2019-01-31T01:13:04.625Z,2.20
2019-01-31T01:15:43.590Z,1.90
2019-01-31T01:18:45.867Z,1.80
2019-01-31T01:21:43.454Z,1.80
2019-01-31T01:24:39.101Z,1.60
2019-01-31T01:27:26.293Z,1.70
2019-01-31T01:30:37.521Z,1.80
2019-01-31T01:33:39.470Z,1.80
2019-01-31T01:36:18.284Z,1.90
2019-01-31T01:39:38.443Z,1.80
2019-01-31T01:42:21.444Z,1.90
2019-01-31T01:45:36.034Z,1.90
2019-01-31T01:48:40.598Z,1.90
2019-01-31T01:51:55.559Z,1.80
2019-01-31T01:54:58.106Z,1.90
2019-01-31T01:58:24.053Z,2.00
2019-01-31T02:01:21.288Z,1.90
2019-01-31T02:04:20.431Z,2.00
2019-01-31T02:07:15.026Z,1.90
2019-01-31T02:10:28.598Z,1.90
2019-01-31T02:13:32.322Z,2.10
2019-01-31T02:16:28.425Z,2.00
2019-01-31T02:19:39.205Z,1.70
2019-01-31T02:22:37.452Z,1.70
2019-01-31T02:25:46.601Z,1.60
2019-01-31T02:28:41.249Z,1.70
2019-01-31T02:31:33.630Z,1.50
2019-01-31T02:34:43.929Z,1.50
2019-01-31T02:38:04.512Z,1.50
2019-01-31T02:41:24.660Z,1.50
2019-01-31T02:44:04.602Z,1.50
2019-01-31T02:47:00.330Z,1.60
2019-01-31T02:49:50.462Z,1.50
2019-01-31T02:53:13.725Z,1.60
2019-01-31T02:56:18.720Z,1.70
2019-01-31T02:59:08.361Z,1.70
2019-01-31T03:02:22.769Z,1.70
2019-01-31T03:05:21.630Z,1.50
2019-01-31T03:08:14.967Z,1.60
2019-01-31T03:11:00.168Z,1.90
2019-01-31T03:13:34.893Z,1.90
2019-01-31T03:16:49.857Z,2.00
2019-01-31T03:19:45.068Z,2.00
2019-01-31T03:22:49.383Z,2.10
2019-01-31T03:25:27.794Z,2.20
2019-01-31T03:28:42.124Z,2.20
2019-01-31T03:31:59.139Z,1.80
2019-01-31T03:35:09.123Z,1.80
2019-01-31T03:38:15.741Z,1.80
2019-01-31T03:41:42.442Z,1.80
2019-01-31T03:44:17.414Z,1.80
2019-01-31T03:47:24.357Z,1.80
2019-01-31T03:50:27.242Z,1.80
2019-01-31T03:53:36.526Z,1.80
2019-01-31T03:56:40.526Z,1.80
2019-01-31T03:59:40.917Z,1.80
2019-01-31T04:02:27.609Z,1.80
2019-01-31T04:05:30.382Z,1.80
2019-01-31T04:08:00.690Z,1.70
2019-01-31T04:10:31.010Z,1.70
2019-01-31T04:13:01.214Z,1.70
2019-01-31T04:15:31.553Z,1.70
2019-01-31T04:18:01.883Z,1.80
2019-01-31T04:20:32.174Z,1.80
2019-01-31T04:23:02.444Z,1.80
2019-01-31T04:25:32.724Z,1.70
2019-01-31T04:28:02.965Z,1.70
2019-01-31T04:30:33.294Z,1.70
2019-01-31T04:33:03.567Z,1.60
2019-01-31T04:35:33.857Z,1.60
2019-01-31T04:38:04.314Z,1.70
2019-01-31T04:40:34.588Z,1.60
2019-01-31T04:43:04.849Z,1.50
2019-01-31T04:45:35.158Z,1.60
2019-01-31T04:48:05.444Z,1.50
2019-01-31T04:50:35.755Z,1.50
2019-01-31T04:53:06.076Z,1.40
2019-01-31T04:55:36.365Z,1.40
2019-01-31T04:58:06.645Z,1.20
2019-01-31T05:00:36.885Z,1.20
2019-01-31T05:03:07.169Z,1.30
2019-01-31T05:05:37.501Z,1.30
2019-01-31T05:08:07.766Z,1.20
2019-01-31T05:10:43.160Z,1.20
2019-01-31T05:13:10.077Z,1.30
2019-01-31T05:15:40.376Z,1.20
2019-01-31T05:18:10.660Z,1.30
2019-01-31T05:20:40.937Z,1.40
2019-01-31T05:23:11.266Z,1.40
2019-01-31T05:25:41.570Z,1.30
2019-01-31T05:28:11.837Z,1.10
2019-01-31T05:30:42.177Z,1.00
2019-01-31T05:33:12.986Z,1.00
2019-01-31T05:35:43.381Z,1.10
2019-01-31T05:38:13.682Z,1.10
2019-01-31T05:40:54.391Z,1.00
2019-01-31T05:43:16.310Z,1.00
2019-01-31T05:45:46.618Z,1.10
2019-01-31T05:48:16.941Z,1.20
2019-01-31T05:50:47.267Z,1.10
2019-01-31T05:53:17.582Z,1.10
2019-01-31T05:55:47.909Z,1.10
2019-01-31T05:58:18.245Z,1.20
2019-01-31T06:00:48.569Z,1.20
2019-01-31T06:03:18.911Z,1.40
2019-01-31T06:05:49.219Z,1.40
2019-01-31T06:08:19.501Z,1.40
2019-01-31T06:10:49.811Z,1.50
2019-01-31T06:13:20.093Z,1.40
2019-01-31T06:15:50.402Z,1.40
2019-01-31T06:18:20.630Z,1.50
2019-01-31T06:20:51.009Z,1.50
2019-01-31T06:23:21.287Z,1.60
2019-01-31T06:25:51.610Z,1.70
2019-01-31T06:28:21.874Z,1.70
2019-01-31T06:30:52.193Z,1.60
2019-01-31T06:33:22.409Z,1.60
2019-01-31T06:35:52.696Z,1.70
2019-01-31T06:38:23.034Z,1.80
2019-01-31T06:40:53.308Z,1.80
2019-01-31T06:43:23.610Z,1.80
2019-01-31T06:45:56.273Z,1.90
2019-01-31T06:48:25.955Z,1.90
2019-01-31T06:50:56.194Z,1.90
2019-01-31T06:53:26.501Z,2.30
2019-01-31T06:55:56.810Z,2.60
2019-01-31T06:58:27.097Z,2.50
2019-01-31T07:00:57.440Z,2.40
2019-01-31T07:03:27.848Z,2.40
2019-01-31T07:05:58.137Z,2.40
2019-01-31T07:08:28.440Z,2.30
2019-01-31T07:10:58.635Z,2.30
2019-01-31T07:13:28.897Z,2.50
2019-01-31T07:15:59.234Z,2.90
2019-01-31T07:18:29.545Z,3.00
2019-01-31T07:20:59.929Z,3.00
2019-01-31T07:23:30.227Z,3.10
2019-01-31T07:26:00.692Z,3.30
2019-01-31T07:28:31.042Z,3.30
2019-01-31T07:31:01.297Z,3.10
2019-01-31T07:33:31.657Z,3.00
2019-01-31T07:36:01.984Z,2.80
2019-01-31T07:38:32.350Z,2.70
2019-01-31T07:41:02.669Z,2.60
2019-01-31T07:43:32.977Z,2.60
2019-01-31T07:46:03.385Z,2.50
2019-01-31T07:48:33.739Z,2.50
2019-01-31T07:51:04.145Z,2.50
2019-01-31T07:53:34.524Z,2.50
2019-01-31T07:56:05.047Z,2.50
2019-01-31T07:58:37.907Z,2.70
2019-01-31T08:01:08.369Z,2.60
2019-01-31T08:03:40.840Z,2.70
2019-01-31T08:06:11.254Z,2.70
2019-01-31T08:08:41.630Z,2.60
2019-01-31T08:11:11.906Z,2.50
2019-01-31T08:13:42.247Z,2.60
2019-01-31T08:16:12.444Z,2.60
2019-01-31T08:18:42.736Z,2.60
2019-01-31T08:21:13.015Z,2.70
2019-01-31T08:23:43.233Z,2.70
2019-01-31T08:26:13.356Z,2.70
2019-01-31T08:28:43.512Z,2.60
2019-01-31T08:31:13.737Z,2.50
2019-01-31T08:33:44.059Z,2.50
2019-01-31T08:36:14.209Z,2.50
2019-01-31T08:38:44.406Z,2.50
2019-01-31T08:41:14.554Z,2.60
2019-01-31T08:43:46.647Z,2.50
2019-01-31T08:46:16.604Z,2.60
2019-01-31T08:48:46.944Z,2.60
2019-01-31T08:51:17.272Z,2.50
2019-01-31T08:53:47.636Z,2.60
2019-01-31T08:56:18.009Z,2.60
2019-01-31T08:59:12.305Z,2.50
2019-01-31T09:01:42.680Z,2.60
2019-01-31T09:04:13.015Z,2.60
2019-01-31T09:06:43.489Z,2.60
2019-01-31T09:09:14.893Z,2.60
2019-01-31T09:11:45.346Z,2.70
2019-01-31T09:14:15.722Z,2.70
2019-01-31T09:16:46.016Z,2.80
2019-01-31T09:19:16.287Z,2.80
2019-01-31T09:22:02.528Z,2.90
2019-01-31T09:24:57.262Z,3.10
2019-01-31T09:27:51.725Z,3.10
2019-01-31T09:30:45.616Z,3.10
2019-01-31T09:33:43.443Z,3.10
2019-01-31T09:36:43.304Z,3.20
2019-01-31T09:39:59.823Z,3.30
2019-01-31T09:42:38.667Z,3.30
2019-01-31T09:45:41.157Z,3.40
2019-01-31T09:48:48.828Z,3.40
2019-01-31T09:51:40.497Z,3.50
2019-01-31T09:55:00.277Z,3.70
2019-01-31T09:57:59.040Z,3.70
2019-01-31T10:00:57.204Z,3.70
2019-01-31T10:03:53.713Z,3.80
2019-01-31T10:07:03.429Z,3.90
2019-01-31T10:10:03.839Z,4.10
2019-01-31T10:13:02.858Z,4.30
2019-01-31T10:15:53.933Z,4.40
2019-01-31T10:18:37.791Z,4.80
2019-01-31T10:21:30.565Z,4.70
2019-01-31T10:24:36.693Z,4.90
2019-01-31T10:27:41.400Z,4.90
2019-01-31T10:30:57.347Z,5.00
2019-01-31T10:33:59.212Z,5.20
2019-01-31T10:37:05.470Z,5.20
2019-01-31T10:39:56.449Z,5.20
2019-01-31T10:42:53.881Z,5.30
2019-01-31T10:45:47.353Z,5.40
2019-01-31T10:48:59.192Z,5.30
2019-01-31T10:52:00.154Z,5.30
2019-01-31T10:55:35.664Z,5.10
2019-01-31T10:58:41.216Z,5.00
2019-01-31T11:01:45.423Z,5.10
2019-01-31T11:04:45.149Z,5.40
2019-01-31T11:07:46.565Z,5.60
2019-01-31T11:10:44.182Z,5.80
2019-01-31T11:13:52.140Z,5.70
2019-01-31T11:16:45.372Z,5.50
2019-01-31T11:19:50.100Z,5.40
2019-01-31T11:22:51.736Z,5.30
2019-01-31T11:25:51.751Z,5.50
2019-01-31T11:29:06.110Z,5.60
2019-01-31T11:32:01.387Z,5.70
2019-01-31T11:35:08.285Z,6.10
2019-01-31T11:38:18.048Z,6.20
2019-01-31T11:41:30.915Z,6.20
2019-01-31T11:45:00.892Z,6.10
2019-01-31T11:47:46.908Z,6.20
2019-01-31T11:50:38.258Z,6.20
2019-01-31T11:53:51.222Z,6.20
2019-01-31T11:57:05.575Z,6.20
2019-01-31T11:59:34.917Z,6.50
2019-01-31T12:02:06.325Z,6.50
2019-01-31T12:04:36.673Z,6.60
2019-01-31T12:07:06.972Z,6.70
2019-01-31T12:09:37.161Z,6.80
2019-01-31T12:12:07.433Z,6.90
2019-01-31T12:14:38.162Z,6.70
2019-01-31T12:17:08.411Z,6.80
2019-01-31T12:19:38.690Z,6.80
2019-01-31T12:22:10.004Z,6.90
2019-01-31T12:24:40.246Z,6.80
2019-01-31T12:27:10.441Z,7.00
2019-01-31T12:29:40.743Z,7.10
2019-01-31T12:32:10.983Z,7.70
2019-01-31T12:34:43.261Z,8.50
2019-01-31T12:37:13.268Z,8.60
2019-01-31T12:39:43.556Z,8.20
2019-01-31T12:42:13.776Z,8.00
2019-01-31T12:44:44.084Z,8.00
2019-01-31T12:47:14.289Z,7.60
2019-01-31T12:49:44.532Z,7.50
2019-01-31T12:52:14.813Z,7.50
2019-01-31T12:54:45.121Z,7.30
2019-01-31T12:57:15.406Z,7.10
2019-01-31T12:59:45.683Z,7.10
2019-01-31T13:02:15.955Z,7.30
2019-01-31T13:04:46.232Z,7.50
2019-01-31T13:07:16.575Z,7.70
2019-01-31T13:09:46.827Z,7.70
2019-01-31T13:12:17.101Z,7.80
2019-01-31T13:14:47.325Z,7.60
2019-01-31T13:17:17.560Z,7.70
2019-01-31T13:19:47.844Z,7.70
2019-01-31T13:22:18.242Z,7.70
2019-01-31T13:24:48.566Z,7.90
2019-01-31T13:27:18.758Z,7.80
2019-01-31T13:29:48.984Z,7.50
2019-01-31T13:32:19.241Z,7.40
2019-01-31T13:34:49.582Z,7.40
2019-01-31T13:37:19.817Z,7.60
2019-01-31T13:39:50.087Z,7.60
2019-01-31T13:42:20.316Z,7.60
2019-01-31T13:44:50.617Z,7.70
2019-01-31T13:47:20.861Z,7.60
2019-01-31T13:49:51.068Z,7.70
2019-01-31T13:52:21.341Z,7.50
2019-01-31T13:54:51.633Z,7.70
2019-01-31T13:57:21.828Z,7.60
2019-01-31T13:59:52.105Z,7.80
2019-01-31T14:02:22.369Z,7.80
2019-01-31T14:04:52.579Z,7.70
2019-01-31T14:07:22.986Z,7.70
2019-01-31T14:09:53.172Z,7.60
2019-01-31T14:12:23.437Z,7.50
2019-01-31T14:14:53.867Z,7.20
2019-01-31T14:17:24.108Z,7.20
2019-01-31T14:19:54.408Z,7.30
2019-01-31T14:22:24.780Z,7.50
2019-01-31T14:24:55.122Z,7.40
2019-01-31T14:27:25.431Z,7.40
2019-01-31T14:29:56.152Z,7.20
2019-01-31T14:32:26.799Z,7.00
2019-01-31T14:34:57.070Z,7.10
2019-01-31T14:37:28.099Z,7.00
2019-01-31T14:39:58.365Z,6.90
2019-01-31T14:42:28.633Z,6.70
2019-01-31T14:44:58.872Z,6.70
2019-01-31T14:47:29.101Z,6.60
2019-01-31T14:49:59.366Z,6.70
2019-01-31T14:52:29.650Z,6.70
2019-01-31T14:54:59.913Z,6.60
2019-01-31T14:57:30.148Z,6.60
2019-01-31T15:00:01.968Z,6.40
2019-01-31T15:02:32.266Z,6.40
2019-01-31T15:05:02.452Z,6.60
2019-01-31T15:07:32.804Z,6.60
2019-01-31T15:10:03.157Z,6.60
2019-01-31T15:12:33.465Z,6.60
2019-01-31T15:15:04.104Z,6.60
2019-01-31T15:17:34.352Z,6.60
2019-01-31T15:20:07.481Z,6.60
2019-01-31T15:22:37.794Z,6.50
2019-01-31T15:25:08.256Z,6.50
2019-01-31T15:27:38.455Z,6.50
2019-01-31T15:30:10.797Z,6.40
2019-01-31T15:32:41.061Z,6.20
2019-01-31T15:35:11.622Z,6.10
2019-01-31T15:37:41.797Z,6.10
2019-01-31T15:40:16.692Z,6.00
2019-01-31T15:42:48.912Z,6.00
2019-01-31T15:45:19.044Z,6.00
2019-01-31T15:47:49.315Z,5.90
2019-01-31T15:50:19.592Z,5.70
2019-01-31T15:52:49.794Z,5.70
2019-01-31T15:55:20.943Z,5.60
2019-01-31T15:57:51.176Z,5.50
2019-01-31T16:00:36.525Z,5.50
2019-01-31T16:03:08.053Z,5.40
2019-01-31T16:05:38.338Z,5.30
2019-01-31T16:08:09.132Z,5.30
2019-01-31T16:10:39.559Z,5.10
2019-01-31T16:13:09.920Z,5.10
2019-01-31T16:15:40.337Z,5.10
2019-01-31T16:18:11.809Z,5.00
2019-01-31T16:20:42.237Z,4.90
2019-01-31T16:23:14.040Z,4.90
2019-01-31T16:25:47.577Z,4.90
2019-01-31T16:28:17.348Z,4.90
2019-01-31T16:30:47.658Z,4.80
2019-01-31T16:33:18.077Z,4.90
2019-01-31T16:35:49.169Z,4.80
2019-01-31T16:38:19.490Z,4.80
2019-01-31T16:40:49.869Z,4.80
2019-01-31T16:43:20.221Z,4.80
2019-01-31T16:45:50.537Z,4.80
2019-01-31T16:48:20.863Z,4.80
2019-01-31T16:50:54.893Z,4.80
2019-01-31T16:53:26.426Z,4.70
2019-01-31T16:55:58.305Z,4.70
2019-01-31T16:58:30.659Z,4.70
2019-01-31T17:01:01.070Z,4.80
2019-01-31T17:03:31.356Z,4.80
2019-01-31T17:06:01.609Z,4.80
2019-01-31T17:08:31.904Z,4.80
2019-01-31T17:11:03.747Z,4.70
2019-01-31T17:13:35.698Z,4.60
2019-01-31T17:16:08.628Z,4.60
2019-01-31T17:18:38.478Z,4.60
2019-01-31T17:21:08.764Z,4.60
2019-01-31T17:23:39.049Z,4.60
2019-01-31T17:26:11.015Z,4.50
2019-01-31T17:28:42.947Z,4.50
2019-01-31T17:31:14.904Z,4.50
2019-01-31T17:33:45.197Z,4.30
2019-01-31T17:36:17.131Z,4.40
2019-01-31T17:38:49.033Z,4.30
2019-01-31T17:41:19.378Z,4.30
2019-01-31T17:43:51.388Z,4.20
2019-01-31T17:46:22.039Z,4.20
2019-01-31T17:48:52.390Z,4.20
2019-01-31T17:51:24.356Z,4.30
2019-01-31T17:53:54.636Z,4.20
2019-01-31T17:56:24.957Z,4.20
2019-01-31T17:58:55.256Z,4.10
2019-01-31T18:01:25.548Z,4.10
2019-01-31T18:03:55.776Z,4.10
2019-01-31T18:06:26.154Z,4.10
2019-01-31T18:08:56.452Z,4.20
2019-01-31T18:11:26.695Z,4.20
2019-01-31T18:13:57.038Z,4.20
2019-01-31T18:16:27.522Z,4.10
2019-01-31T18:18:58.087Z,4.20
2019-01-31T18:21:28.307Z,4.10
2019-01-31T18:23:58.964Z,4.10
2019-01-31T18:26:29.456Z,4.10
2019-01-31T18:28:59.935Z,4.10
2019-01-31T18:31:30.281Z,4.00
2019-01-31T18:34:00.586Z,4.10
2019-01-31T18:36:30.865Z,4.10
2019-01-31T18:39:01.241Z,4.20
2019-01-31T18:41:31.474Z,4.20
2019-01-31T18:44:01.783Z,4.20
2019-01-31T18:46:32.114Z,4.20
2019-01-31T18:49:02.480Z,4.10
2019-01-31T18:51:32.804Z,4.10
2019-01-31T18:54:04.838Z,4.20
2019-01-31T18:56:35.619Z,4.10
2019-01-31T18:59:07.423Z,4.20
2019-01-31T19:01:39.046Z,4.20
2019-01-31T19:04:09.297Z,4.20
2019-01-31T19:06:40.053Z,4.20
2019-01-31T19:09:10.517Z,4.20
2019-01-31T19:11:40.808Z,4.20
2019-01-31T19:14:14.259Z,4.00
2019-01-31T19:16:43.351Z,4.20
2019-01-31T19:19:16.198Z,4.20
2019-01-31T19:21:46.409Z,4.20
2019-01-31T19:24:16.729Z,4.20
2019-01-31T19:26:46.932Z,4.10
2019-01-31T19:29:17.502Z,4.20
2019-01-31T19:31:47.748Z,4.30
2019-01-31T19:34:18.049Z,4.30
2019-01-31T19:36:48.413Z,4.30
2019-01-31T19:39:18.945Z,4.30
2019-01-31T19:41:49.270Z,4.20
2019-01-31T19:44:19.550Z,4.40
2019-01-31T19:46:49.843Z,4.40
2019-01-31T19:49:20.159Z,4.40
2019-01-31T19:51:51.630Z,4.40
2019-01-31T19:54:21.933Z,4.40
2019-01-31T19:56:52.206Z,4.40
2019-01-31T19:59:22.469Z,4.40
2019-01-31T20:01:52.683Z,4.40
2019-01-31T20:04:23.002Z,4.50
2019-01-31T20:06:55.073Z,4.60
2019-01-31T20:09:27.321Z,4.60
2019-01-31T20:11:57.609Z,4.50
2019-01-31T20:14:27.936Z,4.40
2019-01-31T20:16:58.178Z,4.50
2019-01-31T20:19:28.432Z,4.40
2019-01-31T20:21:58.810Z,4.50
2019-01-31T20:24:29.125Z,4.50
2019-01-31T20:26:59.453Z,4.50
2019-01-31T20:29:29.788Z,4.60
2019-01-31T20:32:00.091Z,4.60
2019-01-31T20:34:30.477Z,4.50
2019-01-31T20:37:00.713Z,4.50
2019-01-31T20:39:31.085Z,4.60
2019-01-31T20:42:01.359Z,4.60
2019-01-31T20:44:31.671Z,4.60
2019-01-31T20:47:02.000Z,4.50
2019-01-31T20:49:32.371Z,4.70
2019-01-31T20:52:02.733Z,4.80
2019-01-31T20:54:35.362Z,4.90
2019-01-31T20:57:05.656Z,4.90
2019-01-31T20:59:39.025Z,5.00
2019-01-31T21:02:09.297Z,4.90
2019-01-31T21:04:39.651Z,5.00
2019-01-31T21:07:09.957Z,5.10
2019-01-31T21:09:40.279Z,5.20
2019-01-31T21:12:10.614Z,5.20
2019-01-31T21:14:41.103Z,5.20
2019-01-31T21:17:22.902Z,5.10
2019-01-31T21:19:55.948Z,5.10
2019-01-31T21:22:26.269Z,5.10
2019-01-31T21:24:56.541Z,5.20
2019-01-31T21:27:26.906Z,5.30
2019-01-31T21:29:57.201Z,5.20
2019-01-31T21:32:27.599Z,5.20
2019-01-31T21:34:57.976Z,5.20
2019-01-31T21:37:28.273Z,5.20
2019-01-31T21:39:58.653Z,5.30
2019-01-31T21:42:28.945Z,5.30
2019-01-31T21:44:59.283Z,5.30
2019-01-31T21:47:29.471Z,5.20
2019-01-31T21:49:59.732Z,5.40
2019-01-31T21:52:30.041Z,5.30
2019-01-31T21:55:00.384Z,5.30
2019-01-31T21:57:30.700Z,5.40
2019-01-31T22:00:01.007Z,5.30
2019-01-31T22:02:31.306Z,5.30
2019-01-31T22:05:01.590Z,5.40
2019-01-31T22:07:33.195Z,5.40
2019-01-31T22:10:03.486Z,5.30
2019-01-31T22:12:33.769Z,5.30
2019-01-31T22:15:05.132Z,5.20
2019-01-31T22:17:35.352Z,5.20
2019-01-31T22:20:06.027Z,5.10
2019-01-31T22:22:36.364Z,5.20
2019-01-31T22:25:08.219Z,5.10
2019-01-31T22:27:38.636Z,5.20
2019-01-31T22:30:15.672Z,5.10
2019-01-31T22:32:45.990Z,5.10
2019-01-31T22:35:16.241Z,5.10
2019-01-31T22:37:46.513Z,5.10
2019-01-31T22:40:16.877Z,5.20
2019-01-31T22:42:47.121Z,5.30
2019-01-31T22:45:19.114Z,5.10
2019-01-31T22:47:49.533Z,5.10
2019-01-31T22:50:21.005Z,5.10
2019-01-31T22:52:51.636Z,5.10
2019-01-31T22:55:23.218Z,5.10
2019-01-31T22:57:53.492Z,5.10
2019-01-31T23:01:01.435Z,5.10
2019-01-31T23:03:31.724Z,5.20
2019-01-31T23:06:02.033Z,5.10
2019-01-31T23:08:32.332Z,5.10
2019-01-31T23:11:02.636Z,5.20
2019-01-31T23:13:32.958Z,5.10
2019-01-31T23:16:03.262Z,5.10
2019-01-31T23:18:33.460Z,5.10
2019-01-31T23:21:04.253Z,5.30
2019-01-31T23:23:34.522Z,5.10
2019-01-31T23:26:04.964Z,5.20
2019-01-31T23:28:35.227Z,5.10
2019-01-31T23:31:05.609Z,5.10
2019-01-31T23:33:35.817Z,5.10
2019-01-31T23:36:06.305Z,5.00
2019-01-31T23:38:36.583Z,5.20
2019-01-31T23:41:06.872Z,5.20
2019-01-31T23:43:37.145Z,5.10
2019-01-31T23:46:07.529Z,5.20
2019-01-31T23:48:37.729Z,5.20
2019-01-31T23:51:08.016Z,5.30
2019-01-31T23:53:38.264Z,5.20
2019-01-31T23:56:08.558Z,5.10
2019-01-31T23:58:40.011Z,5.10
